Time;durP1;ratioP1;P1;durP2;ratioP2;P2;SDS_P1;SDS_P2;PMS_P1;PMS_P2;Temp;Humidity;BMP_temperature;BMP_pressure;BME280_temperature;BME280_humidity;BME280_pressure;Samples;Min_cycle;Max_cycle;Signal;HPM_P1;HPM_P2
2023/05/04 00:00:46;;;;;;;18.15;6.43;;;;;;;;;;5049458;28;20037;-71
2023/05/04 00:03:12;;;;;;;15.35;6.22;;;;;;;;;;5047035;28;20099;-71
2023/05/04 00:05:38;;;;;;;17.33;7.68;;;;;;;;;;5050211;28;20040;-71
2023/05/04 00:08:04;;;;;;;13.80;6.30;;;;;;;;;;5051424;28;20033;-71
2023/05/04 00:10:30;;;;;;;19.23;6.72;;;;;;;;;;5051079;28;20028;-70
2023/05/04 00:12:56;;;;;;;24.80;6.95;;;;;;;;;;5051264;28;20025;-71
2023/05/04 00:15:22;;;;;;;20.23;8.02;;;;;;;;;;5051598;28;20021;-71
2023/05/04 00:17:48;;;;;;;21.38;7.47;;;;;;;;;;5051496;28;20036;-72
2023/05/04 00:20:14;;;;;;;17.83;6.82;;;;;;;;;;5051435;28;20031;-71
2023/05/04 00:22:40;;;;;;;21.88;8.05;;;;;;;;;;5051229;28;20029;-70
2023/05/04 00:25:07;;;;;;;24.90;8.18;;;;;;;;;;5051712;28;20033;-71
2023/05/04 00:27:34;;;;;;;19.55;7.65;;;;;;;;;;5051486;28;20101;-72
2023/05/04 00:30:00;;;;;;;19.90;8.38;;;;;;;;;;5051440;28;20029;-72
2023/05/04 00:32:26;;;;;;;16.73;7.50;;;;;;;;;;5051199;28;20029;-71
2023/05/04 00:34:52;;;;;;;19.58;7.95;;;;;;;;;;5051392;28;20389;-71
2023/05/04 00:37:18;;;;;;;20.80;7.90;;;;;;;;;;5051325;28;20029;-70
2023/05/04 00:39:44;;;;;;;16.08;7.40;;;;;;;;;;5051081;28;20040;-71
2023/05/04 00:42:10;;;;;;;21.42;7.35;;;;;;;;;;5050942;28;20094;-70
2023/05/04 00:44:40;;;;;;;21.98;6.85;;;;;;;;;;5051176;28;20021;-71
2023/05/04 00:47:06;;;;;;;22.30;8.43;;;;;;;;;;5051637;28;20431;-72
2023/05/04 00:49:32;;;;;;;21.02;7.28;;;;;;;;;;5050990;28;20429;-71
2023/05/04 00:51:58;;;;;;;20.27;7.25;;;;;;;;;;5050751;28;20025;-71
2023/05/04 00:54:24;;;;;;;19.05;7.40;;;;;;;;;;5051214;28;20025;-70
2023/05/04 00:56:51;;;;;;;17.40;6.75;;;;;;;;;;5051105;28;20116;-71
2023/05/04 00:59:17;;;;;;;16.63;6.88;;;;;;;;;;5050963;28;20105;-71
2023/05/04 01:01:43;;;;;;;18.83;7.72;;;;;;;;;;5051029;28;20029;-70
2023/05/04 01:04:09;;;;;;;14.82;6.60;;;;;;;;;;5050839;28;20075;-71
2023/05/04 01:06:35;;;;;;;16.95;7.22;;;;;;;;;;5051047;28;20031;-71
2023/05/04 01:09:09;;;;;;;17.27;6.60;;;;;;;;;;5050946;28;20029;-71
2023/05/04 01:11:39;;;;;;;16.08;7.13;;;;;;;;;;5051150;28;20025;-72
2023/05/04 01:14:06;;;;;;;13.63;6.97;;;;;;;;;;5050894;28;20021;-72
2023/05/04 01:16:32;;;;;;;16.15;6.80;;;;;;;;;;5052277;28;20028;-72
2023/05/04 01:18:58;;;;;;;20.58;7.47;;;;;;;;;;5050990;28;20033;-71
2023/05/04 01:21:29;;;;;;;18.27;7.00;;;;;;;;;;5051066;28;20025;-71
2023/05/04 01:23:55;;;;;;;20.63;7.15;;;;;;;;;;5054844;28;20108;-71
2023/05/04 01:26:27;;;;;;;18.92;7.15;;;;;;;;;;5054627;28;20017;-72
2023/05/04 01:29:01;;;;;;;17.27;6.82;;;;;;;;;;5054495;28;20017;-70
2023/05/04 01:31:28;;;;;;;21.45;7.20;;;;;;;;;;5054344;28;20040;-71
2023/05/04 01:33:54;;;;;;;16.52;7.05;;;;;;;;;;5053190;28;20025;-71
2023/05/04 01:36:21;;;;;;;23.38;7.60;;;;;;;;;;5054320;28;20033;-71
2023/05/04 01:38:47;;;;;;;20.38;7.03;;;;;;;;;;5054114;28;20021;-71
2023/05/04 01:41:13;;;;;;;18.08;6.57;;;;;;;;;;5054323;28;20036;-71
2023/05/04 01:43:39;;;;;;;16.17;6.90;;;;;;;;;;5053935;28;20467;-71
2023/05/04 01:46:06;;;;;;;21.15;7.40;;;;;;;;;;5053242;28;20119;-71
2023/05/04 01:48:32;;;;;;;17.02;5.88;;;;;;;;;;5054077;28;20019;-71
2023/05/04 01:50:58;;;;;;;19.88;6.65;;;;;;;;;;5054208;28;20021;-71
2023/05/04 01:53:24;;;;;;;16.70;7.00;;;;;;;;;;5053700;28;20500;-71
2023/05/04 01:55:49;;;;;;;18.58;6.45;;;;;;;;;;5052894;28;20057;-71
2023/05/04 01:58:17;;;;;;;16.25;7.00;;;;;;;;;;5052818;28;20029;-71
2023/05/04 02:00:43;;;;;;;13.35;6.45;;;;;;;;;;5052971;28;20446;-71
2023/05/04 02:03:09;;;;;;;19.90;6.57;;;;;;;;;;5052589;28;20047;-72
2023/05/04 02:05:35;;;;;;;18.73;7.10;;;;;;;;;;5052631;28;20168;-70
2023/05/04 02:08:01;;;;;;;16.08;6.22;;;;;;;;;;5052531;28;20033;-71
2023/05/04 02:10:27;;;;;;;17.30;6.38;;;;;;;;;;5052426;28;20053;-71
2023/05/04 02:12:53;;;;;;;19.25;6.63;;;;;;;;;;5052544;28;20075;-70
2023/05/04 02:15:19;;;;;;;20.20;6.55;;;;;;;;;;5053451;28;20029;-74
2023/05/04 02:17:45;;;;;;;20.33;7.03;;;;;;;;;;5052956;28;20025;-72
2023/05/04 02:20:12;;;;;;;19.02;6.93;;;;;;;;;;5052243;28;20474;-72
2023/05/04 02:22:38;;;;;;;17.25;6.93;;;;;;;;;;5052293;28;20082;-77
2023/05/04 02:25:04;;;;;;;21.58;7.07;;;;;;;;;;5052370;28;20044;-72
2023/05/04 02:27:30;;;;;;;15.48;6.78;;;;;;;;;;5052513;28;20024;-71
2023/05/04 02:29:59;;;;;;;15.93;6.40;;;;;;;;;;5052646;28;20029;-72
2023/05/04 02:32:25;;;;;;;19.20;7.32;;;;;;;;;;5057158;28;20103;-72
2023/05/04 02:34:52;;;;;;;20.10;6.65;;;;;;;;;;5071926;28;20056;-71
2023/05/04 02:37:18;;;;;;;13.57;6.70;;;;;;;;;;5063055;28;20037;-70
2023/05/04 02:39:44;;;;;;;18.15;6.88;;;;;;;;;;5051735;28;20378;-70
2023/05/04 02:42:10;;;;;;;16.13;6.72;;;;;;;;;;5051694;28;20029;-70
2023/05/04 02:44:36;;;;;;;16.63;7.28;;;;;;;;;;5051442;28;20376;-71
2023/05/04 02:47:02;;;;;;;21.08;7.18;;;;;;;;;;5051946;28;20029;-71
2023/05/04 02:49:28;;;;;;;18.88;6.35;;;;;;;;;;5051765;28;20514;-71
2023/05/04 02:51:54;;;;;;;16.35;6.63;;;;;;;;;;5051502;28;20029;-71
2023/05/04 02:54:20;;;;;;;22.05;6.85;;;;;;;;;;5051659;28;20116;-70
2023/05/04 02:56:46;;;;;;;15.25;6.57;;;;;;;;;;5051837;28;20356;-71
2023/05/04 02:59:12;;;;;;;17.67;7.28;;;;;;;;;;5051728;28;20054;-71
2023/05/04 03:01:38;;;;;;;17.90;6.47;;;;;;;;;;5051462;28;20556;-71
2023/05/04 03:04:06;;;;;;;16.25;6.20;;;;;;;;;;5051281;28;20037;-71
2023/05/04 03:06:32;;;;;;;20.92;5.95;;;;;;;;;;5051649;28;20048;-71
2023/05/04 03:08:58;;;;;;;18.83;6.68;;;;;;;;;;5051416;28;20075;-73
2023/05/04 03:11:24;;;;;;;18.15;6.45;;;;;;;;;;5052328;28;20024;-72
2023/05/04 03:13:51;;;;;;;18.77;6.03;;;;;;;;;;5051411;28;20023;-71
2023/05/04 03:16:17;;;;;;;13.52;6.18;;;;;;;;;;5051487;28;20321;-71
2023/05/04 03:18:43;;;;;;;19.17;6.65;;;;;;;;;;5051297;28;20048;-72
2023/05/04 03:21:09;;;;;;;18.73;6.93;;;;;;;;;;5051407;28;20021;-71
2023/05/04 03:23:35;;;;;;;19.75;8.13;;;;;;;;;;5051185;28;20021;-72
2023/05/04 03:26:01;;;;;;;30.40;9.25;;;;;;;;;;5051095;28;20029;-71
2023/05/04 03:28:27;;;;;;;20.15;8.20;;;;;;;;;;5051246;28;20495;-71
2023/05/04 03:30:53;;;;;;;20.50;7.32;;;;;;;;;;5051032;28;20051;-75
2023/05/04 03:33:19;;;;;;;20.75;7.38;;;;;;;;;;5052346;28;20021;-74
2023/05/04 03:35:45;;;;;;;20.85;7.15;;;;;;;;;;5052364;28;20499;-71
2023/05/04 03:38:11;;;;;;;23.83;8.23;;;;;;;;;;5051098;28;20029;-71
2023/05/04 03:40:37;;;;;;;19.65;7.43;;;;;;;;;;5050966;28;20651;-71
2023/05/04 03:43:03;;;;;;;18.63;7.05;;;;;;;;;;5050555;28;20036;-71
2023/05/04 03:45:29;;;;;;;17.95;7.13;;;;;;;;;;5049870;28;20029;-71
2023/05/04 03:47:55;;;;;;;23.25;7.05;;;;;;;;;;5050642;28;20025;-72
2023/05/04 03:50:21;;;;;;;17.83;6.65;;;;;;;;;;5050474;28;20171;-71
2023/05/04 03:52:48;;;;;;;15.40;6.90;;;;;;;;;;5050355;28;20550;-70
2023/05/04 03:55:14;;;;;;;23.58;7.10;;;;;;;;;;5050873;28;20100;-71
2023/05/04 03:57:40;;;;;;;20.98;7.60;;;;;;;;;;5050908;28;20031;-71
2023/05/04 04:00:06;;;;;;;22.92;7.63;;;;;;;;;;5051022;28;20139;-71
2023/05/04 04:02:32;;;;;;;24.23;7.28;;;;;;;;;;5051081;28;20510;-71
2023/05/04 04:04:58;;;;;;;21.30;8.02;;;;;;;;;;5049595;28;20029;-72
2023/05/04 04:07:24;;;;;;;20.85;7.78;;;;;;;;;;5050449;28;20073;-71
2023/05/04 04:09:51;;;;;;;18.05;6.78;;;;;;;;;;5050746;28;20024;-71
2023/05/04 04:12:19;;;;;;;19.75;7.32;;;;;;;;;;5050356;28;20027;-72
2023/05/04 04:14:45;;;;;;;22.10;7.75;;;;;;;;;;5050660;28;20032;-70
2023/05/04 04:17:11;;;;;;;18.23;7.90;;;;;;;;;;5050551;28;20091;-71
2023/05/04 04:19:37;;;;;;;22.45;7.68;;;;;;;;;;5050420;28;20209;-70
2023/05/04 04:22:03;;;;;;;15.50;7.13;;;;;;;;;;5050468;28;20029;-70
2023/05/04 04:24:30;;;;;;;19.58;7.85;;;;;;;;;;5050284;28;20029;-70
2023/05/04 04:26:56;;;;;;;24.50;8.75;;;;;;;;;;5050544;28;20487;-70
2023/05/04 04:29:22;;;;;;;24.48;8.55;;;;;;;;;;5050238;28;20118;-71
2023/05/04 04:31:48;;;;;;;24.30;8.40;;;;;;;;;;5050361;28;20171;-73
2023/05/04 04:34:14;;;;;;;26.42;9.43;;;;;;;;;;5051724;28;20029;-72
2023/05/04 04:36:40;;;;;;;21.58;7.97;;;;;;;;;;5051308;28;20534;-75
2023/05/04 04:39:06;;;;;;;26.92;10.10;;;;;;;;;;5050515;28;20025;-74
2023/05/04 04:41:32;;;;;;;29.23;11.00;;;;;;;;;;5050118;28;20371;-72
2023/05/04 04:43:58;;;;;;;31.05;10.93;;;;;;;;;;5052886;28;20025;-72
2023/05/04 04:46:24;;;;;;;25.33;10.50;;;;;;;;;;5050945;28;20108;-72
2023/05/04 04:48:52;;;;;;;26.15;9.98;;;;;;;;;;5051650;28;20517;-77
2023/05/04 04:51:18;;;;;;;27.65;10.57;;;;;;;;;;5050344;28;20593;-72
2023/05/04 04:53:44;;;;;;;26.92;9.02;;;;;;;;;;5050034;28;20029;-72
2023/05/04 04:56:10;;;;;;;21.38;8.60;;;;;;;;;;5051510;28;20032;-75
2023/05/04 04:58:36;;;;;;;22.85;8.65;;;;;;;;;;5055407;28;20056;-72
2023/05/04 05:01:03;;;;;;;18.38;7.97;;;;;;;;;;5054483;28;20048;-71
2023/05/04 05:03:29;;;;;;;26.00;8.73;;;;;;;;;;5053525;28;20021;-71
2023/05/04 05:05:55;;;;;;;26.55;8.50;;;;;;;;;;5054169;28;20040;-73
2023/05/04 05:08:21;;;;;;;20.55;8.63;;;;;;;;;;5053901;28;20029;-71
2023/05/04 05:10:47;;;;;;;28.05;8.88;;;;;;;;;;5054736;28;20051;-70
2023/05/04 05:13:13;;;;;;;23.08;9.00;;;;;;;;;;5053889;28;20025;-72
2023/05/04 05:15:39;;;;;;;24.42;7.60;;;;;;;;;;5054131;28;20035;-71
2023/05/04 05:18:05;;;;;;;21.67;7.65;;;;;;;;;;5053746;28;20049;-70
2023/05/04 05:20:32;;;;;;;25.85;8.90;;;;;;;;;;5053506;28;20351;-73
2023/05/04 05:22:58;;;;;;;21.95;7.82;;;;;;;;;;5054549;28;20244;-71
2023/05/04 05:25:24;;;;;;;20.88;7.28;;;;;;;;;;5054599;28;20025;-76
2023/05/04 05:27:51;;;;;;;23.85;7.82;;;;;;;;;;5052102;28;20021;-73
2023/05/04 05:30:17;;;;;;;27.58;7.85;;;;;;;;;;5053814;28;20524;-72
2023/05/04 05:32:43;;;;;;;18.65;7.20;;;;;;;;;;5053217;28;20029;-71
2023/05/04 05:35:09;;;;;;;25.15;7.40;;;;;;;;;;5055494;28;20037;-71
2023/05/04 05:37:35;;;;;;;22.38;7.60;;;;;;;;;;5054872;28;20491;-72
2023/05/04 05:40:01;;;;;;;26.45;7.53;;;;;;;;;;5053033;28;20119;-71
2023/05/04 05:42:29;;;;;;;21.83;7.50;;;;;;;;;;5052846;28;20108;-71
2023/05/04 05:44:55;;;;;;;19.38;7.53;;;;;;;;;;5053236;28;20036;-72
2023/05/04 05:47:21;;;;;;;20.88;7.72;;;;;;;;;;5052915;28;20114;-73
2023/05/04 05:49:47;;;;;;;21.58;7.00;;;;;;;;;;5052941;28;20092;-74
2023/05/04 05:52:13;;;;;;;22.45;6.95;;;;;;;;;;5052297;28;20028;-72
2023/05/04 05:54:39;;;;;;;18.50;6.97;;;;;;;;;;5052874;28;20029;-72
2023/05/04 05:57:05;;;;;;;19.23;6.22;;;;;;;;;;5052848;28;20111;-73
2023/05/04 05:59:31;;;;;;;27.08;6.65;;;;;;;;;;5052786;28;20051;-73
2023/05/04 06:01:57;;;;;;;19.15;6.95;;;;;;;;;;5052878;28;20407;-72
2023/05/04 06:04:23;;;;;;;24.27;6.45;;;;;;;;;;5052954;28;20087;-72
2023/05/04 06:06:49;;;;;;;19.00;6.80;;;;;;;;;;5052843;28;20048;-73
2023/05/04 06:09:15;;;;;;;18.67;6.30;;;;;;;;;;5053924;28;20475;-70
2023/05/04 06:11:41;;;;;;;20.13;6.35;;;;;;;;;;5055998;28;20028;-72
2023/05/04 06:14:08;;;;;;;19.42;6.57;;;;;;;;;;5053402;28;20079;-71
2023/05/04 06:16:34;;;;;;;22.50;6.53;;;;;;;;;;5053669;28;20025;-71
2023/05/04 06:19:00;;;;;;;24.73;6.40;;;;;;;;;;5052241;28;20029;-72
2023/05/04 06:21:26;;;;;;;21.42;5.30;;;;;;;;;;5052460;28;20029;-71
2023/05/04 06:23:52;;;;;;;20.30;5.72;;;;;;;;;;5052326;28;20114;-71
2023/05/04 06:26:19;;;;;;;25.05;5.60;;;;;;;;;;5052494;28;20025;-71
2023/05/04 06:28:45;;;;;;;20.25;5.55;;;;;;;;;;5052463;28;20017;-74
2023/05/04 06:31:11;;;;;;;16.23;4.75;;;;;;;;;;5052104;28;20029;-72
2023/05/04 06:33:37;;;;;;;23.80;5.68;;;;;;;;;;5052036;28;20031;-71
2023/05/04 06:36:03;;;;;;;23.50;5.20;;;;;;;;;;5054055;28;20047;-71
2023/05/04 06:38:29;;;;;;;23.58;5.93;;;;;;;;;;5056605;28;20398;-73
2023/05/04 06:40:55;;;;;;;14.60;5.57;;;;;;;;;;5057187;28;20029;-72
2023/05/04 06:43:21;;;;;;;17.83;4.72;;;;;;;;;;5057555;28;20083;-71
2023/05/04 06:45:47;;;;;;;16.25;4.25;;;;;;;;;;5055723;28;20422;-76
2023/05/04 06:48:13;;;;;;;28.55;4.82;;;;;;;;;;5056469;28;20032;-74
2023/05/04 06:50:39;;;;;;;16.67;3.83;;;;;;;;;;5054138;28;20048;-72
2023/05/04 06:53:09;;;;;;;25.27;4.07;;;;;;;;;;5056906;28;20403;-71
2023/05/04 06:55:36;;;;;;;20.17;4.85;;;;;;;;;;5052056;28;20045;-71
2023/05/04 06:58:02;;;;;;;19.50;3.78;;;;;;;;;;5051952;28;20129;-69
2023/05/04 07:00:28;;;;;;;20.33;3.97;;;;;;;;;;5052099;28;20033;-72
2023/05/04 07:02:54;;;;;;;17.45;3.65;;;;;;;;;;5051293;28;20507;-71
2023/05/04 07:05:21;;;;;;;21.25;3.63;;;;;;;;;;5051561;28;20103;-72
2023/05/04 07:07:47;;;;;;;22.67;3.90;;;;;;;;;;5052197;28;20375;-73
2023/05/04 07:10:14;;;;;;;21.80;4.60;;;;;;;;;;5052971;28;20021;-76
2023/05/04 07:12:40;;;;;;;23.20;6.35;;;;;;;;;;5052823;28;20031;-73
2023/05/04 07:15:07;;;;;;;16.30;3.67;;;;;;;;;;5053488;28;20025;-73
2023/05/04 07:17:33;;;;;;;18.83;3.65;;;;;;;;;;5051988;28;20483;-71
2023/05/04 07:20:03;;;;;;;13.50;3.63;;;;;;;;;;5051137;28;20096;-72
2023/05/04 07:22:30;;;;;;;13.95;3.97;;;;;;;;;;5051306;28;20100;-70
2023/05/04 07:24:57;;;;;;;17.85;4.82;;;;;;;;;;5051487;28;20029;-74
2023/05/04 07:27:23;;;;;;;18.92;4.05;;;;;;;;;;5051564;28;20017;-74
2023/05/04 07:29:49;;;;;;;16.83;4.05;;;;;;;;;;5051738;28;20578;-72
2023/05/04 07:32:16;;;;;;;18.00;4.03;;;;;;;;;;5051199;28;20025;-75
2023/05/04 07:34:43;;;;;;;22.13;3.92;;;;;;;;;;5051785;28;20033;-73
2023/05/04 07:37:09;;;;;;;17.58;3.50;;;;;;;;;;5051602;28;20028;-73
2023/05/04 07:39:35;;;;;;;12.70;3.10;;;;;;;;;;5051198;28;20360;-72
2023/05/04 07:42:02;;;;;;;9.70;3.70;;;;;;;;;;5051590;28;20029;-74
2023/05/04 07:44:29;;;;;;;17.90;4.65;;;;;;;;;;5051766;28;20067;-72
2023/05/04 07:46:55;;;;;;;18.27;3.58;;;;;;;;;;5051162;28;20100;-73
2023/05/04 07:49:21;;;;;;;14.00;3.28;;;;;;;;;;5050982;28;20108;-72
2023/05/04 07:51:47;;;;;;;12.93;3.15;;;;;;;;;;5048311;28;20036;-71
2023/05/04 07:54:14;;;;;;;17.90;3.30;;;;;;;;;;5050616;28;20032;-70
2023/05/04 07:56:40;;;;;;;16.42;3.47;;;;;;;;;;5052635;28;20490;-71
2023/05/04 07:59:06;;;;;;;14.70;3.67;;;;;;;;;;5071752;28;20055;-71
2023/05/04 08:01:32;;;;;;;17.90;3.42;;;;;;;;;;5071560;28;20035;-71
2023/05/04 08:03:58;;;;;;;16.95;3.42;;;;;;;;;;5071759;28;20103;-71
2023/05/04 08:06:24;;;;;;;18.88;3.67;;;;;;;;;;5071875;28;20036;-71
2023/05/04 08:08:50;;;;;;;11.45;3.13;;;;;;;;;;5070986;28;20029;-72
2023/05/04 08:11:16;;;;;;;17.27;3.05;;;;;;;;;;5071627;28;20020;-70
2023/05/04 08:13:45;;;;;;;22.27;3.83;;;;;;;;;;5071322;28;20035;-71
2023/05/04 08:16:11;;;;;;;15.88;3.33;;;;;;;;;;5071308;28;20037;-71
2023/05/04 08:18:37;;;;;;;20.40;3.33;;;;;;;;;;5054902;28;20033;-73
2023/05/04 08:21:04;;;;;;;16.52;3.05;;;;;;;;;;5052415;28;20544;-73
2023/05/04 08:23:30;;;;;;;12.32;3.00;;;;;;;;;;5051164;28;20074;-73
2023/05/04 08:25:56;;;;;;;23.33;2.90;;;;;;;;;;5051679;28;20372;-71
2023/05/04 08:28:22;;;;;;;14.77;3.38;;;;;;;;;;5051372;28;20066;-70
2023/05/04 08:30:49;;;;;;;37.28;4.28;;;;;;;;;;5064496;28;20032;-71
2023/05/04 08:33:15;;;;;;;18.00;2.55;;;;;;;;;;5065403;28;20398;-70
2023/05/04 08:35:41;;;;;;;13.98;3.40;;;;;;;;;;5057925;28;20025;-71
2023/05/04 08:38:07;;;;;;;19.33;2.85;;;;;;;;;;5056974;28;20025;-71
2023/05/04 08:40:33;;;;;;;13.00;3.08;;;;;;;;;;5057549;28;20028;-71
2023/05/04 08:42:59;;;;;;;12.13;2.70;;;;;;;;;;5058552;28;20024;-72
2023/05/04 08:45:26;;;;;;;11.70;3.13;;;;;;;;;;5057899;28;20029;-72
2023/05/04 08:47:52;;;;;;;13.93;3.35;;;;;;;;;;5057909;28;20029;-72
2023/05/04 08:50:18;;;;;;;19.08;3.55;;;;;;;;;;5058506;28;20025;-71
2023/05/04 08:52:46;;;;;;;10.18;2.80;;;;;;;;;;5058014;28;20052;-75
2023/05/04 08:55:12;;;;;;;13.85;2.67;;;;;;;;;;5058285;28;20448;-71
2023/05/04 08:57:39;;;;;;;13.63;2.95;;;;;;;;;;5056080;28;20033;-72
2023/05/04 09:00:05;;;;;;;11.50;2.65;;;;;;;;;;5057710;28;20537;-71
2023/05/04 09:02:32;;;;;;;18.33;3.20;;;;;;;;;;5057793;28;20107;-71
2023/05/04 09:05:00;;;;;;;16.38;3.92;;;;;;;;;;5058225;28;20107;-72
2023/05/04 09:07:26;;;;;;;17.17;3.20;;;;;;;;;;5057606;28;20112;-72
2023/05/04 09:09:53;;;;;;;19.17;3.20;;;;;;;;;;5058049;28;20096;-71
2023/05/04 09:12:19;;;;;;;13.60;3.13;;;;;;;;;;5058475;28;20084;-70
2023/05/04 09:14:46;;;;;;;15.40;2.90;;;;;;;;;;5058167;28;20033;-72
2023/05/04 09:17:24;;;;;;;15.68;3.10;;;;;;;;;;5058079;28;20474;-71
2023/05/04 09:19:57;;;;;;;10.45;2.63;;;;;;;;;;5058155;28;20035;-71
2023/05/04 09:22:23;;;;;;;6.78;2.20;;;;;;;;;;5058187;28;20033;-70
2023/05/04 09:24:49;;;;;;;15.15;3.10;;;;;;;;;;5058640;28;20075;-71
2023/05/04 09:27:17;;;;;;;14.32;2.75;;;;;;;;;;5057727;28;20438;-71
2023/05/04 09:29:43;;;;;;;12.40;2.90;;;;;;;;;;5060626;28;20040;-71
2023/05/04 09:32:15;;;;;;;13.50;3.05;;;;;;;;;;5057935;28;20099;-72
2023/05/04 09:34:48;;;;;;;16.02;2.90;;;;;;;;;;5067824;28;20032;-71
2023/05/04 09:37:14;;;;;;;15.93;3.60;;;;;;;;;;5077682;28;20029;-70
2023/05/04 09:39:57;;;;;;;12.85;2.90;;;;;;;;;;5077574;28;20020;-71
2023/05/04 09:42:25;;;;;;;16.67;2.60;;;;;;;;;;5075885;28;20035;-75
2023/05/04 09:45:05;;;;;;;14.02;2.67;;;;;;;;;;5074658;28;20029;-70
2023/05/04 09:47:40;;;;;;;10.60;2.60;;;;;;;;;;5074867;28;20099;-71
2023/05/04 09:50:10;;;;;;;14.02;3.10;;;;;;;;;;5075048;28;20016;-71
2023/05/04 09:52:36;;;;;;;15.40;2.63;;;;;;;;;;5074832;28;20384;-71
2023/05/04 09:55:03;;;;;;;15.68;2.90;;;;;;;;;;5074625;28;20032;-70
2023/05/04 09:57:29;;;;;;;13.90;2.72;;;;;;;;;;5075187;28;20052;-72
2023/05/04 09:59:55;;;;;;;12.07;2.90;;;;;;;;;;5074591;28;20474;-71
2023/05/04 10:02:22;;;;;;;12.90;2.50;;;;;;;;;;5074123;28;20046;-71
2023/05/04 10:04:48;;;;;;;15.38;3.00;;;;;;;;;;5074089;28;20051;-72
2023/05/04 10:07:15;;;;;;;10.20;2.72;;;;;;;;;;5073815;28;20032;-71
2023/05/04 10:09:41;;;;;;;10.02;2.97;;;;;;;;;;5073456;28;20079;-70
2023/05/04 10:12:07;;;;;;;16.23;2.97;;;;;;;;;;5073585;28;20024;-71
2023/05/04 10:14:36;;;;;;;10.70;3.05;;;;;;;;;;5074155;28;20024;-71
2023/05/04 10:17:08;;;;;;;16.85;3.25;;;;;;;;;;5074315;28;20048;-72
2023/05/04 10:19:35;;;;;;;17.67;3.40;;;;;;;;;;5073833;28;20444;-70
2023/05/04 10:22:23;;;;;;;13.07;2.97;;;;;;;;;;5073516;28;20107;-71
2023/05/04 10:24:59;;;;;;;10.35;3.53;;;;;;;;;;5073743;28;20025;-70
2023/05/04 10:27:46;;;;;;;14.77;3.17;;;;;;;;;;5073393;28;20115;-71
2023/05/04 10:30:13;;;;;;;11.20;2.70;;;;;;;;;;5073522;28;20024;-72
2023/05/04 10:32:40;;;;;;;10.43;2.70;;;;;;;;;;5073611;28;20367;-71
2023/05/04 10:35:06;;;;;;;10.02;2.80;;;;;;;;;;5073457;28;20052;-72
2023/05/04 10:37:32;;;;;;;11.10;2.60;;;;;;;;;;5073605;28;20044;-72
2023/05/04 10:39:58;;;;;;;8.43;2.78;;;;;;;;;;5073460;28;20035;-71
2023/05/04 10:42:24;;;;;;;8.77;2.95;;;;;;;;;;5073120;28;20111;-72
2023/05/04 10:44:54;;;;;;;12.77;3.15;;;;;;;;;;5074067;28;20024;-72
2023/05/04 10:47:34;;;;;;;8.55;2.58;;;;;;;;;;5074092;28;20044;-71
2023/05/04 10:50:07;;;;;;;12.90;2.92;;;;;;;;;;5073836;28;20047;-72
2023/05/04 10:52:45;;;;;;;15.50;3.28;;;;;;;;;;5073697;28;20025;-71
2023/05/04 10:55:11;;;;;;;10.82;3.03;;;;;;;;;;5073111;28;20032;-69
2023/05/04 10:57:50;;;;;;;16.10;3.05;;;;;;;;;;5073085;28;20099;-70
2023/05/04 11:00:17;;;;;;;15.27;3.25;;;;;;;;;;5073065;28;20033;-70
2023/05/04 11:02:43;;;;;;;13.70;3.28;;;;;;;;;;5072749;28;20483;-70
2023/05/04 11:05:16;;;;;;;9.95;3.00;;;;;;;;;;5073046;28;20036;-71
2023/05/04 11:07:42;;;;;;;14.20;3.03;;;;;;;;;;5073225;28;20032;-71
2023/05/04 11:10:19;;;;;;;10.43;2.40;;;;;;;;;;5072600;28;20033;-73
2023/05/04 11:12:45;;;;;;;13.05;2.72;;;;;;;;;;5073337;28;20020;-70
2023/05/04 11:15:12;;;;;;;15.20;2.88;;;;;;;;;;5073183;28;20032;-70
2023/05/04 11:17:47;;;;;;;13.43;2.53;;;;;;;;;;5072861;28;20107;-71
2023/05/04 11:20:23;;;;;;;15.63;3.03;;;;;;;;;;5072759;28;20029;-72
2023/05/04 11:22:49;;;;;;;9.18;2.65;;;;;;;;;;5072700;28;20048;-72
2023/05/04 11:25:16;;;;;;;11.95;2.53;;;;;;;;;;5072656;28;20031;-73
2023/05/04 11:27:43;;;;;;;16.52;3.13;;;;;;;;;;5073002;28;20452;-71
2023/05/04 11:30:09;;;;;;;9.20;2.53;;;;;;;;;;5073109;28;20024;-70
2023/05/04 11:32:41;;;;;;;11.93;2.65;;;;;;;;;;5073587;28;20093;-71
2023/05/04 11:35:08;;;;;;;7.60;2.17;;;;;;;;;;5072797;28;20059;-72
2023/05/04 11:37:39;;;;;;;10.55;2.38;;;;;;;;;;5073291;28;20024;-73
2023/05/04 11:40:09;;;;;;;11.25;2.63;;;;;;;;;;5072543;28;20032;-71
2023/05/04 11:42:36;;;;;;;15.75;2.70;;;;;;;;;;5071961;28;20485;-72
2023/05/04 11:45:02;;;;;;;8.48;2.45;;;;;;;;;;5072097;28;20025;-71
2023/05/04 11:47:28;;;;;;;14.50;2.78;;;;;;;;;;5071870;28;20056;-72
2023/05/04 11:49:55;;;;;;;13.45;3.03;;;;;;;;;;5071082;28;20382;-70
2023/05/04 11:52:24;;;;;;;11.00;2.30;;;;;;;;;;5070914;28;20180;-72
2023/05/04 11:54:56;;;;;;;14.18;2.80;;;;;;;;;;5071103;28;20017;-70
2023/05/04 11:57:23;;;;;;;13.45;3.65;;;;;;;;;;5071222;28;20052;-71
2023/05/04 11:59:49;;;;;;;13.15;2.47;;;;;;;;;;5071460;28;20037;-71
2023/05/04 12:02:16;;;;;;;8.85;2.60;;;;;;;;;;5070934;28;20012;-71
2023/05/04 12:04:42;;;;;;;13.45;2.53;;;;;;;;;;5070916;28;20150;-70
2023/05/04 12:07:08;;;;;;;10.07;2.20;;;;;;;;;;5070066;28;20052;-71
2023/05/04 12:09:44;;;;;;;13.32;4.50;;;;;;;;;;5070935;28;20048;-72
2023/05/04 12:12:10;;;;;;;14.63;2.92;;;;;;;;;;5070162;28;20028;-71
2023/05/04 12:14:46;;;;;;;8.60;2.53;;;;;;;;;;5070495;28;20029;-70
2023/05/04 12:17:12;;;;;;;10.90;2.45;;;;;;;;;;5070629;28;20032;-70
2023/05/04 12:19:47;;;;;;;13.30;2.42;;;;;;;;;;5070378;28;20250;-70
2023/05/04 12:22:13;;;;;;;13.70;3.65;;;;;;;;;;5070048;28;20371;-71
2023/05/04 12:24:39;;;;;;;10.57;2.38;;;;;;;;;;5070248;28;20051;-72
2023/05/04 12:27:12;;;;;;;10.52;2.90;;;;;;;;;;5070183;28;20359;-71
2023/05/04 12:29:38;;;;;;;6.63;2.20;;;;;;;;;;5070184;28;20520;-71
2023/05/04 12:32:04;;;;;;;11.27;2.85;;;;;;;;;;5070321;28;20020;-72
2023/05/04 12:34:30;;;;;;;11.20;2.72;;;;;;;;;;5069967;28;20020;-72
2023/05/04 12:36:56;;;;;;;12.63;3.22;;;;;;;;;;5070273;28;20490;-72
2023/05/04 12:39:22;;;;;;;12.68;2.83;;;;;;;;;;5070953;28;20059;-75
2023/05/04 12:41:49;;;;;;;8.38;2.20;;;;;;;;;;5069852;28;20043;-72
2023/05/04 12:44:15;;;;;;;13.75;3.40;;;;;;;;;;5070230;28;20025;-72
2023/05/04 12:46:42;;;;;;;9.82;2.90;;;;;;;;;;5070370;28;20076;-72
2023/05/04 12:49:09;;;;;;;11.57;2.35;;;;;;;;;;5070329;28;20028;-73
2023/05/04 12:51:35;;;;;;;9.35;2.38;;;;;;;;;;5070212;28;20032;-72
2023/05/04 12:54:01;;;;;;;12.45;2.70;;;;;;;;;;5069948;28;20047;-72
2023/05/04 12:56:27;;;;;;;7.47;2.40;;;;;;;;;;5070319;28;20139;-72
2023/05/04 12:58:53;;;;;;;18.88;2.25;;;;;;;;;;5070126;28;20028;-73
2023/05/04 13:01:19;;;;;;;17.65;2.90;;;;;;;;;;5047862;28;20029;-71
2023/05/04 13:03:45;;;;;;;14.48;2.90;;;;;;;;;;5049766;28;20502;-70
2023/05/04 13:06:11;;;;;;;10.75;2.80;;;;;;;;;;5052671;28;20074;-71
2023/05/04 13:08:37;;;;;;;22.40;3.33;;;;;;;;;;5049485;28;20454;-72
2023/05/04 13:11:04;;;;;;;9.75;2.47;;;;;;;;;;5052234;28;20109;-71
2023/05/04 13:13:30;;;;;;;8.70;2.38;;;;;;;;;;5048267;28;20025;-71
2023/05/04 13:15:56;;;;;;;14.15;2.50;;;;;;;;;;5051100;28;20017;-70
2023/05/04 13:18:26;;;;;;;28.83;13.20;;;;;;;;;;5053974;28;20631;-71
2023/05/04 13:20:52;;;;;;;13.77;2.97;;;;;;;;;;5055469;28;20067;-71
2023/05/04 13:23:21;;;;;;;9.70;2.35;;;;;;;;;;5054585;28;20404;-72
2023/05/04 13:25:51;;;;;;;14.68;2.30;;;;;;;;;;5054028;28;20021;-71
2023/05/04 13:28:17;;;;;;;8.43;2.40;;;;;;;;;;5053834;28;20025;-72
2023/05/04 13:30:43;;;;;;;13.65;2.70;;;;;;;;;;5053671;28;20051;-72
2023/05/04 13:33:09;;;;;;;5.70;1.67;;;;;;;;;;5053210;28;20040;-73
2023/05/04 13:35:36;;;;;;;10.48;2.45;;;;;;;;;;5053458;28;20025;-72
2023/05/04 13:38:02;;;;;;;11.30;2.30;;;;;;;;;;5053894;28;20037;-75
2023/05/04 13:40:28;;;;;;;10.73;2.22;;;;;;;;;;5054123;28;20522;-71
2023/05/04 13:42:54;;;;;;;14.00;2.40;;;;;;;;;;5053377;28;20037;-72
2023/05/04 13:45:21;;;;;;;10.70;1.83;;;;;;;;;;5053422;28;20561;-73
2023/05/04 13:47:47;;;;;;;6.65;2.05;;;;;;;;;;5053388;28;20021;-71
2023/05/04 13:50:13;;;;;;;10.27;2.05;;;;;;;;;;5053315;28;20029;-71
2023/05/04 13:52:39;;;;;;;10.77;1.98;;;;;;;;;;5052900;28;20027;-72
2023/05/04 13:55:06;;;;;;;15.65;5.20;;;;;;;;;;5053448;28;20033;-72
2023/05/04 13:57:32;;;;;;;10.02;2.25;;;;;;;;;;5053247;28;20382;-72
2023/05/04 13:59:58;;;;;;;13.90;2.60;;;;;;;;;;5053213;28;20495;-71
2023/05/04 14:02:25;;;;;;;10.38;2.40;;;;;;;;;;5052695;28;20037;-75
2023/05/04 14:04:51;;;;;;;14.10;2.50;;;;;;;;;;5052974;28;20116;-72
2023/05/04 14:07:17;;;;;;;9.30;2.53;;;;;;;;;;5052810;28;20478;-71
2023/05/04 14:09:43;;;;;;;10.73;2.38;;;;;;;;;;5050922;28;20047;-72
2023/05/04 14:12:09;;;;;;;14.40;2.38;;;;;;;;;;5052201;28;20049;-72
2023/05/04 14:14:35;;;;;;;12.80;2.40;;;;;;;;;;5055851;28;20032;-72
2023/05/04 14:17:02;;;;;;;9.98;2.15;;;;;;;;;;5072505;28;20462;-72
2023/05/04 14:19:28;;;;;;;14.07;4.22;;;;;;;;;;5070967;28;20020;-72
2023/05/04 14:21:54;;;;;;;10.40;2.10;;;;;;;;;;5072040;28;20511;-71
2023/05/04 14:24:20;;;;;;;9.45;2.08;;;;;;;;;;5072369;28;20244;-72
2023/05/04 14:26:46;;;;;;;12.32;2.50;;;;;;;;;;5072585;28;20024;-74
2023/05/04 14:29:12;;;;;;;10.00;2.20;;;;;;;;;;5071371;28;20024;-72